sensor_id;sensor_type;location;lat;lon;timestamp;temperature;humidity
3005;DHT22;1512;51.486;6.610;2022-08-16T00:00:19;22.60;99.90
3005;DHT22;1512;51.486;6.610;2022-08-16T00:04:29;22.60;99.90
3005;DHT22;1512;51.486;6.610;2022-08-16T00:08:39;22.50;99.90
3005;DHT22;1512;51.486;6.610;2022-08-16T00:12:50;22.40;99.90
3005;DHT22;1512;51.486;6.610;2022-08-16T00:17:00;22.40;99.90
3005;DHT22;1512;51.486;6.610;2022-08-16T00:21:11;22.30;99.90
3005;DHT22;1512;51.486;6.610;2022-08-16T00:25:22;22.20;99.90
3005;DHT22;1512;51.486;6.610;2022-08-16T00:29:32;22.20;99.90
3005;DHT22;1512;51.486;6.610;2022-08-16T00:33:41;22.20;99.90
3005;DHT22;1512;51.486;6.610;2022-08-16T00:37:51;22.20;99.90
3005;DHT22;1512;51.486;6.610;2022-08-16T00:42:03;22.10;99.90
3005;DHT22;1512;51.486;6.610;2022-08-16T00:46:19;22.10;99.90
3005;DHT22;1512;51.486;6.610;2022-08-16T00:50:32;22.10;99.90
3005;DHT22;1512;51.486;6.610;2022-08-16T00:54:43;22.10;99.90
3005;DHT22;1512;51.486;6.610;2022-08-16T00:58:54;22.10;99.90
3005;DHT22;1512;51.486;6.610;2022-08-16T01:03:08;22.10;99.90
3005;DHT22;1512;51.486;6.610;2022-08-16T01:07:18;22.10;99.90
3005;DHT22;1512;51.486;6.610;2022-08-16T01:11:27;22.10;99.90
3005;DHT22;1512;51.486;6.610;2022-08-16T01:15:38;22.10;99.90
3005;DHT22;1512;51.486;6.610;2022-08-16T01:19:51;22.10;99.90
3005;DHT22;1512;51.486;6.610;2022-08-16T01:28:37;22.00;99.90
3005;DHT22;1512;51.486;6.610;2022-08-16T01:32:49;22.10;99.90
3005;DHT22;1512;51.486;6.610;2022-08-16T01:37:03;22.00;99.90
3005;DHT22;1512;51.486;6.610;2022-08-16T01:41:15;22.10;99.90
3005;DHT22;1512;51.486;6.610;2022-08-16T01:45:26;22.10;99.90
3005;DHT22;1512;51.486;6.610;2022-08-16T01:49:40;22.10;99.90
3005;DHT22;1512;51.486;6.610;2022-08-16T01:53:50;22.10;99.90
3005;DHT22;1512;51.486;6.610;2022-08-16T01:58:01;22.10;99.90
3005;DHT22;1512;51.486;6.610;2022-08-16T02:02:09;22.00;99.90
3005;DHT22;1512;51.486;6.610;2022-08-16T02:06:20;22.00;99.90
3005;DHT22;1512;51.486;6.610;2022-08-16T02:10:31;22.00;99.90
3005;DHT22;1512;51.486;6.610;2022-08-16T02:14:40;21.90;99.90
3005;DHT22;1512;51.486;6.610;2022-08-16T02:18:49;21.80;99.90
3005;DHT22;1512;51.486;6.610;2022-08-16T02:22:59;21.70;99.90
3005;DHT22;1512;51.486;6.610;2022-08-16T02:27:11;21.70;99.90
3005;DHT22;1512;51.486;6.610;2022-08-16T02:31:21;21.60;99.90
3005;DHT22;1512;51.486;6.610;2022-08-16T02:35:33;21.60;99.90
3005;DHT22;1512;51.486;6.610;2022-08-16T02:39:43;21.50;99.90
3005;DHT22;1512;51.486;6.610;2022-08-16T02:43:53;21.40;99.90
3005;DHT22;1512;51.486;6.610;2022-08-16T02:48:03;21.30;99.90
3005;DHT22;1512;51.486;6.610;2022-08-16T02:52:14;21.20;99.90
3005;DHT22;1512;51.486;6.610;2022-08-16T02:56:24;21.10;99.90
3005;DHT22;1512;51.486;6.610;2022-08-16T03:00:34;21.10;99.90
3005;DHT22;1512;51.486;6.610;2022-08-16T03:04:44;21.10;99.90
3005;DHT22;1512;51.486;6.610;2022-08-16T03:08:55;21.00;99.90
3005;DHT22;1512;51.486;6.610;2022-08-16T03:13:05;21.00;99.90
3005;DHT22;1512;51.486;6.610;2022-08-16T03:17:16;21.00;99.90
3005;DHT22;1512;51.486;6.610;2022-08-16T03:21:25;21.00;99.90
3005;DHT22;1512;51.486;6.610;2022-08-16T03:25:37;21.10;99.90
3005;DHT22;1512;51.486;6.610;2022-08-16T03:29:47;21.10;99.90
3005;DHT22;1512;51.486;6.610;2022-08-16T03:33:57;21.00;99.90
3005;DHT22;1512;51.486;6.610;2022-08-16T03:38:08;21.00;99.90
3005;DHT22;1512;51.486;6.610;2022-08-16T03:42:19;20.90;99.90
3005;DHT22;1512;51.486;6.610;2022-08-16T03:46:29;21.00;99.90
3005;DHT22;1512;51.486;6.610;2022-08-16T03:50:39;20.90;99.90
3005;DHT22;1512;51.486;6.610;2022-08-16T03:54:51;20.90;99.90
3005;DHT22;1512;51.486;6.610;2022-08-16T03:59:01;20.90;99.90
3005;DHT22;1512;51.486;6.610;2022-08-16T04:03:10;20.80;99.90
3005;DHT22;1512;51.486;6.610;2022-08-16T04:07:21;20.70;99.90
3005;DHT22;1512;51.486;6.610;2022-08-16T04:11:31;20.60;99.90
3005;DHT22;1512;51.486;6.610;2022-08-16T04:15:41;20.60;99.90
3005;DHT22;1512;51.486;6.610;2022-08-16T04:19:50;20.50;99.90
3005;DHT22;1512;51.486;6.610;2022-08-16T04:24:01;20.40;99.90
3005;DHT22;1512;51.486;6.610;2022-08-16T04:28:12;20.40;99.90
3005;DHT22;1512;51.486;6.610;2022-08-16T04:32:23;20.40;99.90
3005;DHT22;1512;51.486;6.610;2022-08-16T04:36:33;20.30;99.90
3005;DHT22;1512;51.486;6.610;2022-08-16T04:40:43;20.30;99.90
3005;DHT22;1512;51.486;6.610;2022-08-16T04:44:53;20.20;99.90
3005;DHT22;1512;51.486;6.610;2022-08-16T04:49:02;20.20;99.90
3005;DHT22;1512;51.486;6.610;2022-08-16T04:53:11;20.20;99.90
3005;DHT22;1512;51.486;6.610;2022-08-16T04:57:22;20.20;99.90
3005;DHT22;1512;51.486;6.610;2022-08-16T05:01:33;20.20;99.90
3005;DHT22;1512;51.486;6.610;2022-08-16T05:05:44;20.10;99.90
3005;DHT22;1512;51.486;6.610;2022-08-16T05:09:54;20.10;99.90
3005;DHT22;1512;51.486;6.610;2022-08-16T05:14:03;20.10;99.90
3005;DHT22;1512;51.486;6.610;2022-08-16T05:18:14;20.00;99.90
3005;DHT22;1512;51.486;6.610;2022-08-16T05:22:25;20.00;99.90
3005;DHT22;1512;51.486;6.610;2022-08-16T05:26:35;20.10;99.90
3005;DHT22;1512;51.486;6.610;2022-08-16T05:30:46;20.10;99.90
3005;DHT22;1512;51.486;6.610;2022-08-16T05:34:56;20.10;99.90
3005;DHT22;1512;51.486;6.610;2022-08-16T05:39:07;20.10;99.90
3005;DHT22;1512;51.486;6.610;2022-08-16T05:43:16;20.10;99.90
3005;DHT22;1512;51.486;6.610;2022-08-16T05:47:25;20.20;99.90
3005;DHT22;1512;51.486;6.610;2022-08-16T05:51:36;20.20;99.90
3005;DHT22;1512;51.486;6.610;2022-08-16T05:55:46;20.30;99.90
3005;DHT22;1512;51.486;6.610;2022-08-16T05:59:57;20.40;99.90
3005;DHT22;1512;51.486;6.610;2022-08-16T06:04:08;20.40;99.90
3005;DHT22;1512;51.486;6.610;2022-08-16T06:08:18;20.40;99.90
3005;DHT22;1512;51.486;6.610;2022-08-16T06:12:29;20.60;99.90
3005;DHT22;1512;51.486;6.610;2022-08-16T06:16:38;20.60;99.90
3005;DHT22;1512;51.486;6.610;2022-08-16T06:20:48;20.60;99.90
3005;DHT22;1512;51.486;6.610;2022-08-16T06:24:59;20.70;99.90
3005;DHT22;1512;51.486;6.610;2022-08-16T06:29:09;20.80;99.90
3005;DHT22;1512;51.486;6.610;2022-08-16T06:33:20;20.80;99.90
3005;DHT22;1512;51.486;6.610;2022-08-16T06:37:29;20.80;99.90
3005;DHT22;1512;51.486;6.610;2022-08-16T06:41:40;20.90;99.90
3005;DHT22;1512;51.486;6.610;2022-08-16T06:45:48;21.00;99.90
3005;DHT22;1512;51.486;6.610;2022-08-16T06:49:57;21.20;99.90
3005;DHT22;1512;51.486;6.610;2022-08-16T06:54:06;21.20;99.90
3005;DHT22;1512;51.486;6.610;2022-08-16T06:58:17;21.30;99.90
3005;DHT22;1512;51.486;6.610;2022-08-16T07:02:27;21.30;99.90
3005;DHT22;1512;51.486;6.610;2022-08-16T07:06:38;21.40;99.90
3005;DHT22;1512;51.486;6.610;2022-08-16T07:10:49;21.50;99.90
3005;DHT22;1512;51.486;6.610;2022-08-16T07:14:58;21.60;99.90
3005;DHT22;1512;51.486;6.610;2022-08-16T07:19:08;21.70;99.90
3005;DHT22;1512;51.486;6.610;2022-08-16T07:23:17;21.80;99.90
3005;DHT22;1512;51.486;6.610;2022-08-16T07:27:25;21.90;99.90
3005;DHT22;1512;51.486;6.610;2022-08-16T07:31:34;21.90;99.90
3005;DHT22;1512;51.486;6.610;2022-08-16T07:35:44;22.00;99.90
3005;DHT22;1512;51.486;6.610;2022-08-16T07:39:55;22.10;99.90
3005;DHT22;1512;51.486;6.610;2022-08-16T07:44:04;22.30;99.90
3005;DHT22;1512;51.486;6.610;2022-08-16T07:48:15;22.40;99.90
3005;DHT22;1512;51.486;6.610;2022-08-16T07:52:25;22.50;99.90
3005;DHT22;1512;51.486;6.610;2022-08-16T07:56:36;22.60;99.90
3005;DHT22;1512;51.486;6.610;2022-08-16T08:00:45;22.80;99.90
3005;DHT22;1512;51.486;6.610;2022-08-16T08:04:55;22.90;99.90
3005;DHT22;1512;51.486;6.610;2022-08-16T08:09:04;23.00;99.90
3005;DHT22;1512;51.486;6.610;2022-08-16T08:13:13;23.10;99.90
3005;DHT22;1512;51.486;6.610;2022-08-16T08:17:22;23.30;99.90
3005;DHT22;1512;51.486;6.610;2022-08-16T08:21:33;23.60;99.90
3005;DHT22;1512;51.486;6.610;2022-08-16T08:25:44;23.80;99.90
3005;DHT22;1512;51.486;6.610;2022-08-16T08:29:54;24.10;99.90
3005;DHT22;1512;51.486;6.610;2022-08-16T08:34:05;24.30;99.90
3005;DHT22;1512;51.486;6.610;2022-08-16T08:38:14;24.50;99.90
3005;DHT22;1512;51.486;6.610;2022-08-16T08:42:25;24.70;99.90
3005;DHT22;1512;51.486;6.610;2022-08-16T08:46:35;24.80;99.90
3005;DHT22;1512;51.486;6.610;2022-08-16T08:50:45;24.90;99.90
3005;DHT22;1512;51.486;6.610;2022-08-16T08:54:57;25.00;99.90
3005;DHT22;1512;51.486;6.610;2022-08-16T08:59:07;25.10;99.90
3005;DHT22;1512;51.486;6.610;2022-08-16T09:03:18;25.20;99.90
3005;DHT22;1512;51.486;6.610;2022-08-16T09:07:28;25.30;99.90
3005;DHT22;1512;51.486;6.610;2022-08-16T09:11:38;25.50;99.90
3005;DHT22;1512;51.486;6.610;2022-08-16T09:15:53;25.70;99.90
3005;DHT22;1512;51.486;6.610;2022-08-16T09:20:06;25.90;99.90
3005;DHT22;1512;51.486;6.610;2022-08-16T09:24:18;26.10;99.90
3005;DHT22;1512;51.486;6.610;2022-08-16T09:28:28;26.30;99.90
3005;DHT22;1512;51.486;6.610;2022-08-16T09:32:39;26.40;99.90
3005;DHT22;1512;51.486;6.610;2022-08-16T09:36:49;26.70;99.90
3005;DHT22;1512;51.486;6.610;2022-08-16T09:41:04;26.80;99.90
3005;DHT22;1512;51.486;6.610;2022-08-16T09:45:11;26.90;99.90
3005;DHT22;1512;51.486;6.610;2022-08-16T09:49:21;27.00;99.90
3005;DHT22;1512;51.486;6.610;2022-08-16T09:53:30;27.00;99.90
3005;DHT22;1512;51.486;6.610;2022-08-16T09:57:40;27.00;99.90
3005;DHT22;1512;51.486;6.610;2022-08-16T10:01:52;27.00;99.90
3005;DHT22;1512;51.486;6.610;2022-08-16T10:06:02;27.10;99.90
3005;DHT22;1512;51.486;6.610;2022-08-16T10:10:11;27.30;99.90
3005;DHT22;1512;51.486;6.610;2022-08-16T10:14:23;27.50;99.90
3005;DHT22;1512;51.486;6.610;2022-08-16T10:18:34;27.50;99.90
3005;DHT22;1512;51.486;6.610;2022-08-16T10:22:45;27.60;99.90
3005;DHT22;1512;51.486;6.610;2022-08-16T10:26:53;27.90;99.90
3005;DHT22;1512;51.486;6.610;2022-08-16T10:31:06;28.10;98.10
3005;DHT22;1512;51.486;6.610;2022-08-16T10:35:18;28.20;98.50
3005;DHT22;1512;51.486;6.610;2022-08-16T10:39:29;28.40;95.20
3005;DHT22;1512;51.486;6.610;2022-08-16T10:43:40;28.60;95.40
3005;DHT22;1512;51.486;6.610;2022-08-16T10:47:50;28.80;94.00
3005;DHT22;1512;51.486;6.610;2022-08-16T10:52:00;29.00;92.70
3005;DHT22;1512;51.486;6.610;2022-08-16T10:56:11;29.20;92.20
3005;DHT22;1512;51.486;6.610;2022-08-16T11:00:22;29.20;92.40
3005;DHT22;1512;51.486;6.610;2022-08-16T11:04:32;29.40;91.80
3005;DHT22;1512;51.486;6.610;2022-08-16T11:08:43;29.60;88.20
3005;DHT22;1512;51.486;6.610;2022-08-16T11:12:53;29.70;87.30
3005;DHT22;1512;51.486;6.610;2022-08-16T11:17:05;29.70;84.80
3005;DHT22;1512;51.486;6.610;2022-08-16T11:21:15;29.80;79.20
3005;DHT22;1512;51.486;6.610;2022-08-16T11:25:29;30.00;78.90
3005;DHT22;1512;51.486;6.610;2022-08-16T11:29:39;30.10;75.60
3005;DHT22;1512;51.486;6.610;2022-08-16T11:33:49;30.20;75.10
3005;DHT22;1512;51.486;6.610;2022-08-16T11:38:05;30.40;75.20
3005;DHT22;1512;51.486;6.610;2022-08-16T11:42:15;30.60;74.40
3005;DHT22;1512;51.486;6.610;2022-08-16T11:46:26;30.50;69.30
3005;DHT22;1512;51.486;6.610;2022-08-16T11:50:36;30.30;68.20
3005;DHT22;1512;51.486;6.610;2022-08-16T11:54:45;30.50;67.80
3005;DHT22;1512;51.486;6.610;2022-08-16T11:58:55;30.70;65.80
3005;DHT22;1512;51.486;6.610;2022-08-16T12:03:05;30.70;65.00
3005;DHT22;1512;51.486;6.610;2022-08-16T12:07:14;30.30;63.40
3005;DHT22;1512;51.486;6.610;2022-08-16T12:11:23;29.90;63.60
3005;DHT22;1512;51.486;6.610;2022-08-16T12:15:33;29.70;65.50
3005;DHT22;1512;51.486;6.610;2022-08-16T12:19:44;29.40;66.70
3005;DHT22;1512;51.486;6.610;2022-08-16T12:23:53;29.10;67.50
3005;DHT22;1512;51.486;6.610;2022-08-16T12:28:03;28.90;68.60
3005;DHT22;1512;51.486;6.610;2022-08-16T12:32:12;28.70;70.00
3005;DHT22;1512;51.486;6.610;2022-08-16T12:36:23;28.60;71.00
3005;DHT22;1512;51.486;6.610;2022-08-16T12:40:37;28.60;71.70
3005;DHT22;1512;51.486;6.610;2022-08-16T12:44:48;28.60;70.60
3005;DHT22;1512;51.486;6.610;2022-08-16T12:48:58;28.80;68.20
3005;DHT22;1512;51.486;6.610;2022-08-16T12:53:07;29.30;66.70
3005;DHT22;1512;51.486;6.610;2022-08-16T12:57:16;29.50;65.80
3005;DHT22;1512;51.486;6.610;2022-08-16T13:01:30;29.50;65.10
3005;DHT22;1512;51.486;6.610;2022-08-16T13:05:39;29.60;64.80
3005;DHT22;1512;51.486;6.610;2022-08-16T13:09:50;29.70;62.20
3005;DHT22;1512;51.486;6.610;2022-08-16T13:14:01;29.90;62.00
3005;DHT22;1512;51.486;6.610;2022-08-16T13:18:11;30.20;59.80
3005;DHT22;1512;51.486;6.610;2022-08-16T13:22:22;30.30;58.70
3005;DHT22;1512;51.486;6.610;2022-08-16T13:26:31;30.40;58.70
3005;DHT22;1512;51.486;6.610;2022-08-16T13:30:43;30.50;58.20
3005;DHT22;1512;51.486;6.610;2022-08-16T13:34:52;30.60;58.50
3005;DHT22;1512;51.486;6.610;2022-08-16T13:39:03;30.70;57.60
3005;DHT22;1512;51.486;6.610;2022-08-16T13:43:12;30.90;57.40
3005;DHT22;1512;51.486;6.610;2022-08-16T13:47:22;31.00;54.70
3005;DHT22;1512;51.486;6.610;2022-08-16T13:51:33;31.00;55.40
3005;DHT22;1512;51.486;6.610;2022-08-16T13:55:43;31.00;55.90
3005;DHT22;1512;51.486;6.610;2022-08-16T13:59:54;31.00;53.50
3005;DHT22;1512;51.486;6.610;2022-08-16T14:04:04;31.10;54.30
3005;DHT22;1512;51.486;6.610;2022-08-16T14:08:14;31.10;54.30
3005;DHT22;1512;51.486;6.610;2022-08-16T14:12:31;31.20;53.60
3005;DHT22;1512;51.486;6.610;2022-08-16T14:16:35;31.00;52.90
3005;DHT22;1512;51.486;6.610;2022-08-16T14:20:44;30.60;54.20
3005;DHT22;1512;51.486;6.610;2022-08-16T14:24:56;30.30;55.00
3005;DHT22;1512;51.486;6.610;2022-08-16T14:29:05;30.20;56.60
3005;DHT22;1512;51.486;6.610;2022-08-16T14:33:15;30.40;56.00
3005;DHT22;1512;51.486;6.610;2022-08-16T14:37:25;30.50;54.70
3005;DHT22;1512;51.486;6.610;2022-08-16T14:41:34;30.40;54.70
3005;DHT22;1512;51.486;6.610;2022-08-16T14:45:44;30.40;54.40
3005;DHT22;1512;51.486;6.610;2022-08-16T14:49:56;30.40;55.00
3005;DHT22;1512;51.486;6.610;2022-08-16T14:54:05;30.40;56.80
3005;DHT22;1512;51.486;6.610;2022-08-16T14:58:16;30.20;55.90
3005;DHT22;1512;51.486;6.610;2022-08-16T15:02:27;30.20;55.60
3005;DHT22;1512;51.486;6.610;2022-08-16T15:06:37;30.10;54.20
3005;DHT22;1512;51.486;6.610;2022-08-16T15:10:47;30.00;55.20
3005;DHT22;1512;51.486;6.610;2022-08-16T15:14:57;29.90;55.30
3005;DHT22;1512;51.486;6.610;2022-08-16T15:19:06;30.00;54.70
3005;DHT22;1512;51.486;6.610;2022-08-16T15:23:14;30.10;54.80
3005;DHT22;1512;51.486;6.610;2022-08-16T15:27:25;30.20;53.90
3005;DHT22;1512;51.486;6.610;2022-08-16T15:31:35;30.20;54.60
3005;DHT22;1512;51.486;6.610;2022-08-16T15:35:48;30.30;54.30
3005;DHT22;1512;51.486;6.610;2022-08-16T15:40:01;30.20;53.60
3005;DHT22;1512;51.486;6.610;2022-08-16T15:44:13;29.90;53.90
3005;DHT22;1512;51.486;6.610;2022-08-16T15:48:24;29.80;54.60
3005;DHT22;1512;51.486;6.610;2022-08-16T15:52:36;29.70;55.20
3005;DHT22;1512;51.486;6.610;2022-08-16T15:56:45;29.60;55.80
3005;DHT22;1512;51.486;6.610;2022-08-16T16:00:55;29.60;55.80
3005;DHT22;1512;51.486;6.610;2022-08-16T16:05:06;29.60;56.00
3005;DHT22;1512;51.486;6.610;2022-08-16T16:09:17;29.50;56.00
3005;DHT22;1512;51.486;6.610;2022-08-16T16:13:28;29.50;55.10
3005;DHT22;1512;51.486;6.610;2022-08-16T16:17:36;29.40;56.00
3005;DHT22;1512;51.486;6.610;2022-08-16T16:21:46;29.30;55.50
3005;DHT22;1512;51.486;6.610;2022-08-16T16:25:57;29.20;54.70
3005;DHT22;1512;51.486;6.610;2022-08-16T16:30:09;29.30;55.20
3005;DHT22;1512;51.486;6.610;2022-08-16T16:34:20;29.20;55.40
3005;DHT22;1512;51.486;6.610;2022-08-16T16:38:32;29.20;54.90
3005;DHT22;1512;51.486;6.610;2022-08-16T16:42:41;29.20;55.20
3005;DHT22;1512;51.486;6.610;2022-08-16T16:46:51;29.20;54.80
3005;DHT22;1512;51.486;6.610;2022-08-16T16:51:04;29.20;55.30
3005;DHT22;1512;51.486;6.610;2022-08-16T16:55:16;29.30;55.40
3005;DHT22;1512;51.486;6.610;2022-08-16T16:59:26;29.40;55.30
3005;DHT22;1512;51.486;6.610;2022-08-16T17:03:35;29.30;54.00
3005;DHT22;1512;51.486;6.610;2022-08-16T17:07:45;29.30;54.20
3005;DHT22;1512;51.486;6.610;2022-08-16T17:11:54;29.30;53.90
3005;DHT22;1512;51.486;6.610;2022-08-16T17:16:03;29.30;54.10
3005;DHT22;1512;51.486;6.610;2022-08-16T17:20:15;29.30;53.60
3005;DHT22;1512;51.486;6.610;2022-08-16T17:24:24;29.20;53.70
3005;DHT22;1512;51.486;6.610;2022-08-16T17:28:35;29.10;54.20
3005;DHT22;1512;51.486;6.610;2022-08-16T17:32:51;29.00;54.10
3005;DHT22;1512;51.486;6.610;2022-08-16T17:36:59;28.80;54.30
3005;DHT22;1512;51.486;6.610;2022-08-16T17:41:09;28.70;54.30
3005;DHT22;1512;51.486;6.610;2022-08-16T17:45:19;28.70;54.60
3005;DHT22;1512;51.486;6.610;2022-08-16T17:49:29;28.50;55.10
3005;DHT22;1512;51.486;6.610;2022-08-16T17:53:38;28.50;55.40
3005;DHT22;1512;51.486;6.610;2022-08-16T17:57:47;28.40;56.30
3005;DHT22;1512;51.486;6.610;2022-08-16T18:01:56;28.40;56.10
3005;DHT22;1512;51.486;6.610;2022-08-16T18:10:34;28.30;57.90
3005;DHT22;1512;51.486;6.610;2022-08-16T18:14:43;28.20;56.50
3005;DHT22;1512;51.486;6.610;2022-08-16T18:18:54;28.10;56.50
3005;DHT22;1512;51.486;6.610;2022-08-16T18:23:04;28.00;56.80
3005;DHT22;1512;51.486;6.610;2022-08-16T18:27:14;27.90;56.70
3005;DHT22;1512;51.486;6.610;2022-08-16T18:31:24;27.80;57.30
3005;DHT22;1512;51.486;6.610;2022-08-16T18:35:36;27.80;57.50
3005;DHT22;1512;51.486;6.610;2022-08-16T18:39:45;27.70;59.50
3005;DHT22;1512;51.486;6.610;2022-08-16T18:43:53;27.60;61.80
3005;DHT22;1512;51.486;6.610;2022-08-16T18:48:05;27.50;63.50
3005;DHT22;1512;51.486;6.610;2022-08-16T18:52:14;27.40;64.40
3005;DHT22;1512;51.486;6.610;2022-08-16T18:56:25;27.30;65.10
3005;DHT22;1512;51.486;6.610;2022-08-16T19:00:38;27.20;66.50
3005;DHT22;1512;51.486;6.610;2022-08-16T19:04:48;27.10;68.00
3005;DHT22;1512;51.486;6.610;2022-08-16T19:08:58;26.90;68.80
3005;DHT22;1512;51.486;6.610;2022-08-16T19:13:10;26.70;68.60
3005;DHT22;1512;51.486;6.610;2022-08-16T19:17:19;26.60;68.00
3005;DHT22;1512;51.486;6.610;2022-08-16T19:21:27;26.60;68.50
3005;DHT22;1512;51.486;6.610;2022-08-16T19:25:39;26.50;69.10
3005;DHT22;1512;51.486;6.610;2022-08-16T19:29:49;26.40;72.00
3005;DHT22;1512;51.486;6.610;2022-08-16T19:33:59;26.20;72.50
3005;DHT22;1512;51.486;6.610;2022-08-16T19:38:08;26.10;72.00
3005;DHT22;1512;51.486;6.610;2022-08-16T19:42:19;26.00;71.80
3005;DHT22;1512;51.486;6.610;2022-08-16T19:46:27;25.90;72.10
3005;DHT22;1512;51.486;6.610;2022-08-16T19:50:36;25.80;72.70
3005;DHT22;1512;51.486;6.610;2022-08-16T19:54:47;25.80;73.50
3005;DHT22;1512;51.486;6.610;2022-08-16T19:58:56;25.70;75.10
3005;DHT22;1512;51.486;6.610;2022-08-16T20:03:09;25.70;76.80
3005;DHT22;1512;51.486;6.610;2022-08-16T20:07:20;25.50;77.20
3005;DHT22;1512;51.486;6.610;2022-08-16T20:11:29;25.40;77.20
3005;DHT22;1512;51.486;6.610;2022-08-16T20:15:38;25.30;78.50
3005;DHT22;1512;51.486;6.610;2022-08-16T20:19:48;25.20;78.20
3005;DHT22;1512;51.486;6.610;2022-08-16T20:23:56;25.20;78.80
3005;DHT22;1512;51.486;6.610;2022-08-16T20:28:07;25.20;79.80
3005;DHT22;1512;51.486;6.610;2022-08-16T20:32:18;25.10;80.40
3005;DHT22;1512;51.486;6.610;2022-08-16T20:36:29;25.10;81.90
3005;DHT22;1512;51.486;6.610;2022-08-16T20:40:38;25.10;83.00
3005;DHT22;1512;51.486;6.610;2022-08-16T20:44:46;25.00;84.50
3005;DHT22;1512;51.486;6.610;2022-08-16T20:48:55;25.00;84.70
3005;DHT22;1512;51.486;6.610;2022-08-16T20:53:04;25.00;86.50
3005;DHT22;1512;51.486;6.610;2022-08-16T20:57:13;25.00;88.10
3005;DHT22;1512;51.486;6.610;2022-08-16T21:01:23;25.00;88.50
3005;DHT22;1512;51.486;6.610;2022-08-16T21:05:33;25.00;89.70
3005;DHT22;1512;51.486;6.610;2022-08-16T21:09:42;25.00;90.80
3005;DHT22;1512;51.486;6.610;2022-08-16T21:13:51;24.90;91.50
3005;DHT22;1512;51.486;6.610;2022-08-16T21:18:02;24.90;92.70
3005;DHT22;1512;51.486;6.610;2022-08-16T21:22:14;24.90;92.60
3005;DHT22;1512;51.486;6.610;2022-08-16T21:26:23;24.90;92.70
3005;DHT22;1512;51.486;6.610;2022-08-16T21:30:34;24.90;93.90
3005;DHT22;1512;51.486;6.610;2022-08-16T21:34:42;24.90;94.90
3005;DHT22;1512;51.486;6.610;2022-08-16T21:38:51;24.80;95.00
3005;DHT22;1512;51.486;6.610;2022-08-16T21:43:17;24.80;95.70
3005;DHT22;1512;51.486;6.610;2022-08-16T21:47:26;24.80;96.40
3005;DHT22;1512;51.486;6.610;2022-08-16T21:51:35;24.80;96.60
3005;DHT22;1512;51.486;6.610;2022-08-16T21:55:46;24.80;96.80
3005;DHT22;1512;51.486;6.610;2022-08-16T21:59:55;24.80;97.00
3005;DHT22;1512;51.486;6.610;2022-08-16T22:04:04;24.80;97.20
3005;DHT22;1512;51.486;6.610;2022-08-16T22:08:14;24.70;98.60
3005;DHT22;1512;51.486;6.610;2022-08-16T22:12:25;24.70;98.40
3005;DHT22;1512;51.486;6.610;2022-08-16T22:16:37;24.70;98.60
3005;DHT22;1512;51.486;6.610;2022-08-16T22:20:46;24.70;98.50
3005;DHT22;1512;51.486;6.610;2022-08-16T22:24:55;24.60;98.20
3005;DHT22;1512;51.486;6.610;2022-08-16T22:29:07;24.60;98.50
3005;DHT22;1512;51.486;6.610;2022-08-16T22:33:25;24.60;98.00
3005;DHT22;1512;51.486;6.610;2022-08-16T22:37:30;24.60;99.40
3005;DHT22;1512;51.486;6.610;2022-08-16T22:41:39;24.60;99.90
3005;DHT22;1512;51.486;6.610;2022-08-16T22:45:49;24.60;99.90
3005;DHT22;1512;51.486;6.610;2022-08-16T22:49:58;24.50;99.90
3005;DHT22;1512;51.486;6.610;2022-08-16T22:54:07;24.40;99.90
3005;DHT22;1512;51.486;6.610;2022-08-16T23:03:08;24.30;99.90
3005;DHT22;1512;51.486;6.610;2022-08-16T23:07:17;24.30;99.90
3005;DHT22;1512;51.486;6.610;2022-08-16T23:11:25;24.20;99.90
3005;DHT22;1512;51.486;6.610;2022-08-16T23:19:54;24.20;99.90
3005;DHT22;1512;51.486;6.610;2022-08-16T23:24:03;24.20;99.90
3005;DHT22;1512;51.486;6.610;2022-08-16T23:28:13;24.20;99.90
3005;DHT22;1512;51.486;6.610;2022-08-16T23:32:21;24.20;99.90
3005;DHT22;1512;51.486;6.610;2022-08-16T23:36:30;24.20;99.90
3005;DHT22;1512;51.486;6.610;2022-08-16T23:40:40;24.10;99.90
3005;DHT22;1512;51.486;6.610;2022-08-16T23:44:49;24.10;99.90
3005;DHT22;1512;51.486;6.610;2022-08-16T23:49:00;24.10;99.90
3005;DHT22;1512;51.486;6.610;2022-08-16T23:53:16;24.10;99.90
3005;DHT22;1512;51.486;6.610;2022-08-16T23:57:28;24.10;99.90
